Time;durP1;ratioP1;P1;durP2;ratioP2;P2;SDS_P1;SDS_P2;PMS_P1;PMS_P2;Temp;Humidity;BMP_temperature;BMP_pressure;BME280_temperature;BME280_humidity;BME280_pressure;Samples;Min_cycle;Max_cycle;Signal;HPM_P1;HPM_P2
2023/08/20 00:01:55;;;;;;;28.98;8.30;;;;;;;;;;5046781;28;20051;-58
2023/08/20 00:04:23;;;;;;;21.38;10.90;;;;;;;;;;5046264;28;20030;-57
2023/08/20 00:06:50;;;;;;;27.75;13.00;;;;;;;;;;5045560;28;20021;-52
2023/08/20 00:09:16;;;;;;;25.75;14.10;;;;;;;;;;5046291;28;20029;-53
2023/08/20 00:11:43;;;;;;;30.35;13.95;;;;;;;;;;5046286;28;20045;-54
2023/08/20 00:14:16;;;;;;;28.85;13.70;;;;;;;;;;5045368;28;20029;-56
2023/08/20 00:16:43;;;;;;;22.30;11.98;;;;;;;;;;5046244;28;20094;-54
2023/08/20 00:19:13;;;;;;;25.88;12.32;;;;;;;;;;5046195;28;20093;-55
2023/08/20 00:21:44;;;;;;;21.42;11.80;;;;;;;;;;5046324;28;20092;-52
2023/08/20 00:24:11;;;;;;;18.13;10.27;;;;;;;;;;5046566;28;20210;-55
2023/08/20 00:26:38;;;;;;;18.83;10.18;;;;;;;;;;5046422;28;20022;-54
2023/08/20 00:29:04;;;;;;;19.85;9.77;;;;;;;;;;5046185;28;20045;-54
2023/08/20 00:31:31;;;;;;;22.35;10.13;;;;;;;;;;5046421;28;20088;-56
2023/08/20 00:33:58;;;;;;;19.83;9.40;;;;;;;;;;5046586;28;20029;-57
2023/08/20 00:36:25;;;;;;;20.08;9.05;;;;;;;;;;5046050;28;20029;-55
2023/08/20 00:38:51;;;;;;;18.60;7.60;;;;;;;;;;5046258;28;20239;-56
2023/08/20 00:41:18;;;;;;;14.52;7.30;;;;;;;;;;5045974;28;20345;-55
2023/08/20 00:43:45;;;;;;;19.80;6.68;;;;;;;;;;5045196;28;20124;-54
2023/08/20 00:46:12;;;;;;;15.95;6.40;;;;;;;;;;5045746;28;20388;-57
2023/08/20 00:48:39;;;;;;;12.80;6.30;;;;;;;;;;5046560;28;20105;-53
2023/08/20 00:51:08;;;;;;;15.35;5.45;;;;;;;;;;5046429;28;20028;-54
2023/08/20 00:53:35;;;;;;;13.18;5.45;;;;;;;;;;5045995;28;20042;-57
2023/08/20 00:56:02;;;;;;;12.45;4.93;;;;;;;;;;5045876;28;20229;-56
2023/08/20 00:58:28;;;;;;;9.98;5.20;;;;;;;;;;5047711;28;20059;-55
2023/08/20 01:00:55;;;;;;;16.35;6.03;;;;;;;;;;5045602;28;20333;-52
2023/08/20 01:03:22;;;;;;;12.90;7.78;;;;;;;;;;5045785;28;20305;-55
2023/08/20 01:05:51;;;;;;;14.70;7.78;;;;;;;;;;5045875;28;20131;-56
2023/08/20 01:08:21;;;;;;;16.40;7.43;;;;;;;;;;5046375;28;20033;-56
2023/08/20 01:10:58;;;;;;;16.27;6.65;;;;;;;;;;5045652;28;20029;-57
2023/08/20 01:13:25;;;;;;;17.38;7.13;;;;;;;;;;5028410;28;20043;-57
2023/08/20 01:15:52;;;;;;;16.73;7.07;;;;;;;;;;5045683;28;20025;-52
2023/08/20 01:18:19;;;;;;;11.45;5.50;;;;;;;;;;5045834;28;20025;-52
2023/08/20 01:20:53;;;;;;;13.23;5.10;;;;;;;;;;5044550;28;20030;-53
2023/08/20 01:23:37;;;;;;;15.48;5.65;;;;;;;;;;5045209;28;20216;-57
2023/08/20 01:26:26;;;;;;;14.93;4.90;;;;;;;;;;5045259;28;20132;-54
2023/08/20 01:28:53;;;;;;;12.40;4.60;;;;;;;;;;5045067;28;20207;-55
2023/08/20 01:31:20;;;;;;;15.00;4.93;;;;;;;;;;5045166;28;20101;-57
2023/08/20 01:33:48;;;;;;;16.85;4.95;;;;;;;;;;5045227;28;20048;-55
2023/08/20 01:36:16;;;;;;;13.30;5.30;;;;;;;;;;5044894;28;20025;-55
2023/08/20 01:38:43;;;;;;;11.68;4.38;;;;;;;;;;5045291;28;20032;-51
2023/08/20 01:41:10;;;;;;;9.18;4.15;;;;;;;;;;5043371;28;20030;-54
2023/08/20 01:43:36;;;;;;;8.02;3.95;;;;;;;;;;5039292;28;20348;-56
2023/08/20 01:46:03;;;;;;;9.40;3.75;;;;;;;;;;5045180;28;20048;-54
2023/08/20 01:48:30;;;;;;;12.60;4.10;;;;;;;;;;5044921;28;20029;-56
2023/08/20 01:50:56;;;;;;;7.95;4.00;;;;;;;;;;5043482;28;20210;-53
2023/08/20 01:53:23;;;;;;;7.25;4.03;;;;;;;;;;5044572;28;20041;-57
2023/08/20 01:55:50;;;;;;;8.05;4.78;;;;;;;;;;5044282;28;20341;-56
2023/08/20 01:58:16;;;;;;;12.55;5.43;;;;;;;;;;5044283;28;20085;-55
2023/08/20 02:00:43;;;;;;;12.50;5.03;;;;;;;;;;5041436;28;20236;-60
2023/08/20 02:03:10;;;;;;;8.32;4.90;;;;;;;;;;5044742;28;20092;-51
2023/08/20 02:05:37;;;;;;;10.60;4.80;;;;;;;;;;5044465;28;20087;-55
2023/08/20 02:08:07;;;;;;;11.50;4.40;;;;;;;;;;5044144;28;20036;-57
2023/08/20 02:10:33;;;;;;;8.50;4.70;;;;;;;;;;5044555;28;20074;-52
2023/08/20 02:13:07;;;;;;;9.77;4.47;;;;;;;;;;5038801;28;20036;-54
2023/08/20 02:15:33;;;;;;;9.88;4.85;;;;;;;;;;5041048;28;20029;-55
2023/08/20 02:18:03;;;;;;;9.57;5.93;;;;;;;;;;5026295;28;20065;-54
2023/08/20 02:20:30;;;;;;;13.32;7.10;;;;;;;;;;5044143;28;20044;-53
2023/08/20 02:22:58;;;;;;;11.90;6.75;;;;;;;;;;5043756;28;20115;-58
2023/08/20 02:25:25;;;;;;;11.18;6.43;;;;;;;;;;5044941;28;20017;-54
2023/08/20 02:27:51;;;;;;;18.48;7.90;;;;;;;;;;5044035;28;20053;-58
2023/08/20 02:30:18;;;;;;;41.85;31.52;;;;;;;;;;5044594;28;20301;-54
2023/08/20 02:32:45;;;;;;;68.65;53.20;;;;;;;;;;5044114;28;20033;-54
2023/08/20 02:35:14;;;;;;;91.03;69.60;;;;;;;;;;5044244;28;20029;-55
2023/08/20 02:37:41;;;;;;;41.72;23.17;;;;;;;;;;5044046;28;20210;-52
2023/08/20 02:40:08;;;;;;;43.25;16.45;;;;;;;;;;5043136;28;20037;-58
2023/08/20 02:42:35;;;;;;;26.63;14.05;;;;;;;;;;5035415;28;20040;-60
2023/08/20 02:45:05;;;;;;;25.02;11.02;;;;;;;;;;5024577;28;20332;-58
2023/08/20 02:47:31;;;;;;;19.67;8.60;;;;;;;;;;5024499;28;20089;-61
2023/08/20 02:49:58;;;;;;;17.58;7.63;;;;;;;;;;5024446;28;20010;-57
2023/08/20 02:52:25;;;;;;;16.48;7.07;;;;;;;;;;5024490;28;20065;-54
2023/08/20 02:54:51;;;;;;;18.35;8.20;;;;;;;;;;5006791;28;20026;-55
2023/08/20 02:57:18;;;;;;;13.27;7.38;;;;;;;;;;5024079;28;20032;-59
2023/08/20 02:59:47;;;;;;;13.95;7.07;;;;;;;;;;5024514;28;20034;-57
2023/08/20 03:02:14;;;;;;;17.77;6.70;;;;;;;;;;5028064;28;20035;-58
2023/08/20 03:04:41;;;;;;;9.45;5.43;;;;;;;;;;5043859;28;20049;-60
2023/08/20 03:07:07;;;;;;;10.63;5.35;;;;;;;;;;5043866;28;20034;-49
2023/08/20 03:09:34;;;;;;;9.45;5.15;;;;;;;;;;5044117;28;20226;-58
2023/08/20 03:12:02;;;;;;;11.57;4.90;;;;;;;;;;5043810;28;20032;-55
2023/08/20 03:14:29;;;;;;;11.70;4.47;;;;;;;;;;5043630;28;20034;-57
2023/08/20 03:16:55;;;;;;;7.05;4.28;;;;;;;;;;5028086;28;20040;-56
2023/08/20 03:19:22;;;;;;;12.70;6.90;;;;;;;;;;5043574;28;20084;-56
2023/08/20 03:21:49;;;;;;;18.25;9.85;;;;;;;;;;5044193;28;20056;-60
2023/08/20 03:24:15;;;;;;;22.30;10.95;;;;;;;;;;5043873;28;20031;-57
2023/08/20 03:26:42;;;;;;;21.25;10.63;;;;;;;;;;5043595;28;20025;-56
2023/08/20 03:29:09;;;;;;;21.40;9.80;;;;;;;;;;5043609;28;20222;-60
2023/08/20 03:31:35;;;;;;;21.08;9.95;;;;;;;;;;5043554;28;20321;-51
2023/08/20 03:34:02;;;;;;;17.58;9.45;;;;;;;;;;5045535;28;20038;-56
2023/08/20 03:36:29;;;;;;;18.15;9.15;;;;;;;;;;5047287;28;20042;-57
2023/08/20 03:38:55;;;;;;;20.58;8.65;;;;;;;;;;5047228;28;20105;-58
2023/08/20 03:41:23;;;;;;;15.65;7.63;;;;;;;;;;5047330;28;20029;-57
2023/08/20 03:43:50;;;;;;;17.25;8.00;;;;;;;;;;5048084;28;20025;-55
2023/08/20 03:46:25;;;;;;;13.65;7.53;;;;;;;;;;5047884;28;20059;-57
2023/08/20 03:48:52;;;;;;;17.35;7.30;;;;;;;;;;5046461;28;20025;-55
2023/08/20 03:51:19;;;;;;;12.70;7.53;;;;;;;;;;5046496;28;20041;-57
2023/08/20 03:53:45;;;;;;;17.00;7.13;;;;;;;;;;5046966;28;20017;-56
2023/08/20 03:56:12;;;;;;;21.15;7.18;;;;;;;;;;5047082;28;20018;-56
2023/08/20 03:58:39;;;;;;;14.55;6.60;;;;;;;;;;5047069;28;20038;-56
2023/08/20 04:01:06;;;;;;;14.23;5.72;;;;;;;;;;5047691;28;20076;-59
2023/08/20 04:03:33;;;;;;;10.50;5.32;;;;;;;;;;5047084;28;20329;-57
2023/08/20 04:06:02;;;;;;;14.15;5.20;;;;;;;;;;5047467;28;20079;-58
2023/08/20 04:08:30;;;;;;;11.25;4.97;;;;;;;;;;5027801;28;20360;-56
2023/08/20 04:10:56;;;;;;;10.23;4.63;;;;;;;;;;5047206;28;20032;-58
2023/08/20 04:13:26;;;;;;;9.50;3.88;;;;;;;;;;5046884;28;20095;-55
2023/08/20 04:15:53;;;;;;;11.35;4.47;;;;;;;;;;5044537;28;20017;-59
2023/08/20 04:18:22;;;;;;;10.43;4.20;;;;;;;;;;5035541;28;20025;-56
2023/08/20 04:20:48;;;;;;;9.50;3.80;;;;;;;;;;5027235;28;20038;-59
2023/08/20 04:23:15;;;;;;;12.80;4.32;;;;;;;;;;5026476;28;20041;-58
2023/08/20 04:25:42;;;;;;;8.40;3.50;;;;;;;;;;5026979;28;20014;-59
2023/08/20 04:28:09;;;;;;;7.95;4.05;;;;;;;;;;5034830;28;20116;-51
2023/08/20 04:30:36;;;;;;;10.23;4.53;;;;;;;;;;5042853;28;20021;-60
2023/08/20 04:33:03;;;;;;;14.20;4.72;;;;;;;;;;5046144;28;20092;-52
2023/08/20 04:35:29;;;;;;;11.38;4.07;;;;;;;;;;5046653;28;20037;-53
2023/08/20 04:37:56;;;;;;;14.15;4.55;;;;;;;;;;5046168;28;20025;-55
2023/08/20 04:40:23;;;;;;;9.45;4.82;;;;;;;;;;5046667;28;20028;-58
2023/08/20 04:42:49;;;;;;;8.60;5.22;;;;;;;;;;5045897;28;20102;-57
2023/08/20 04:45:19;;;;;;;10.98;4.63;;;;;;;;;;5045447;28;20023;-56
2023/08/20 04:47:47;;;;;;;8.68;4.60;;;;;;;;;;5046052;28;20025;-62
2023/08/20 04:50:14;;;;;;;10.10;4.38;;;;;;;;;;5045931;28;20064;-61
2023/08/20 04:52:41;;;;;;;12.98;4.65;;;;;;;;;;5046056;28;20030;-58
2023/08/20 04:55:08;;;;;;;8.02;4.13;;;;;;;;;;5046542;28;20063;-58
2023/08/20 04:57:34;;;;;;;8.65;4.05;;;;;;;;;;5045770;28;20037;-59
2023/08/20 05:00:01;;;;;;;8.77;3.88;;;;;;;;;;5046149;28;20029;-59
2023/08/20 05:02:28;;;;;;;9.32;3.90;;;;;;;;;;5045839;28;20037;-56
2023/08/20 05:04:55;;;;;;;8.10;3.60;;;;;;;;;;5044689;28;20029;-58
2023/08/20 05:07:21;;;;;;;7.95;4.00;;;;;;;;;;5045656;28;20209;-59
2023/08/20 05:09:48;;;;;;;10.77;3.80;;;;;;;;;;5045874;28;20293;-58
2023/08/20 05:12:14;;;;;;;10.40;3.95;;;;;;;;;;5045850;28;20100;-60
2023/08/20 05:14:41;;;;;;;20.67;4.82;;;;;;;;;;5045695;28;20352;-56
2023/08/20 05:17:08;;;;;;;10.75;3.67;;;;;;;;;;5045950;28;20379;-57
2023/08/20 05:19:35;;;;;;;13.48;4.47;;;;;;;;;;5045791;28;20029;-57
2023/08/20 05:22:01;;;;;;;7.70;3.75;;;;;;;;;;5045575;28;20068;-59
2023/08/20 05:24:29;;;;;;;11.80;3.88;;;;;;;;;;5045536;28;20040;-57
2023/08/20 05:27:05;;;;;;;7.22;3.92;;;;;;;;;;5045308;28;20098;-58
2023/08/20 05:29:32;;;;;;;10.88;4.00;;;;;;;;;;5045168;28;20045;-54
2023/08/20 05:31:59;;;;;;;10.13;4.47;;;;;;;;;;5045273;28;20044;-58
2023/08/20 05:34:25;;;;;;;9.98;4.18;;;;;;;;;;5044875;28;20020;-52
2023/08/20 05:36:52;;;;;;;11.95;4.78;;;;;;;;;;5045256;28;20032;-59
2023/08/20 05:39:19;;;;;;;8.40;4.05;;;;;;;;;;5045320;28;20037;-60
2023/08/20 05:41:45;;;;;;;8.77;3.70;;;;;;;;;;5045024;28;20033;-57
2023/08/20 05:44:12;;;;;;;9.68;4.15;;;;;;;;;;5045097;28;20040;-55
2023/08/20 05:46:40;;;;;;;5.72;3.58;;;;;;;;;;5044756;28;20203;-57
2023/08/20 05:49:07;;;;;;;7.18;3.88;;;;;;;;;;5044836;28;20045;-59
2023/08/20 05:51:34;;;;;;;9.00;4.25;;;;;;;;;;5045253;28;20040;-61
2023/08/20 05:54:00;;;;;;;7.30;3.78;;;;;;;;;;5044900;28;20029;-58
2023/08/20 05:56:27;;;;;;;9.68;4.13;;;;;;;;;;5044905;28;20025;-59
2023/08/20 05:58:54;;;;;;;10.02;4.55;;;;;;;;;;5044858;28;20017;-59
2023/08/20 06:01:20;;;;;;;9.32;3.90;;;;;;;;;;5045001;28;20095;-60
2023/08/20 06:03:47;;;;;;;8.43;4.10;;;;;;;;;;5045016;28;20045;-59
2023/08/20 06:06:14;;;;;;;10.20;4.22;;;;;;;;;;5044937;28;20209;-60
2023/08/20 06:08:40;;;;;;;10.40;3.92;;;;;;;;;;5044504;28;20367;-60
2023/08/20 06:11:07;;;;;;;11.40;3.88;;;;;;;;;;5044399;28;20344;-58
2023/08/20 06:13:34;;;;;;;5.50;3.67;;;;;;;;;;5044495;28;20049;-59
2023/08/20 06:16:00;;;;;;;7.18;3.80;;;;;;;;;;5044941;28;20025;-59
2023/08/20 06:18:27;;;;;;;8.75;3.70;;;;;;;;;;5044270;28;20329;-56
2023/08/20 06:20:54;;;;;;;6.70;3.67;;;;;;;;;;5044451;28;20025;-59
2023/08/20 06:23:20;;;;;;;7.50;3.63;;;;;;;;;;5044379;28;20041;-62
2023/08/20 06:25:47;;;;;;;9.90;3.92;;;;;;;;;;5044960;28;20301;-59
2023/08/20 06:28:13;;;;;;;8.65;3.60;;;;;;;;;;5044302;28;20053;-63
2023/08/20 06:30:40;;;;;;;9.00;3.83;;;;;;;;;;5044594;28;20025;-59
2023/08/20 06:33:07;;;;;;;10.90;3.83;;;;;;;;;;5044253;28;20036;-60
2023/08/20 06:35:34;;;;;;;10.07;3.85;;;;;;;;;;5044769;28;20017;-55
2023/08/20 06:38:02;;;;;;;8.38;3.85;;;;;;;;;;5043934;28;20033;-58
2023/08/20 06:40:31;;;;;;;7.43;3.92;;;;;;;;;;5044302;28;20073;-59
2023/08/20 06:42:58;;;;;;;8.40;3.72;;;;;;;;;;5043943;28;20032;-59
2023/08/20 06:45:24;;;;;;;11.15;3.97;;;;;;;;;;5044636;28;20214;-59
2023/08/20 06:47:51;;;;;;;8.00;3.95;;;;;;;;;;5044010;28;20064;-55
2023/08/20 06:50:18;;;;;;;7.93;4.25;;;;;;;;;;5044628;28;20018;-57
2023/08/20 06:52:44;;;;;;;8.93;3.90;;;;;;;;;;5044277;28;20055;-59
2023/08/20 06:55:11;;;;;;;23.45;4.88;;;;;;;;;;5044132;28;20202;-60
2023/08/20 06:57:38;;;;;;;16.83;4.78;;;;;;;;;;5044127;28;20045;-59
2023/08/20 07:00:04;;;;;;;11.00;5.25;;;;;;;;;;5044091;28;20076;-57
2023/08/20 07:02:31;;;;;;;29.25;7.05;;;;;;;;;;5043904;28;20021;-60
2023/08/20 07:04:58;;;;;;;25.42;5.70;;;;;;;;;;5044411;28;20253;-59
2023/08/20 07:07:28;;;;;;;18.73;5.07;;;;;;;;;;5043876;28;20088;-59
2023/08/20 07:09:55;;;;;;;19.60;5.63;;;;;;;;;;5047916;28;20093;-58
2023/08/20 07:12:25;;;;;;;14.02;4.72;;;;;;;;;;5048357;28;20321;-58
2023/08/20 07:14:51;;;;;;;12.52;4.82;;;;;;;;;;5048271;28;20037;-56
2023/08/20 07:17:18;;;;;;;15.77;4.70;;;;;;;;;;5047917;28;20203;-56
2023/08/20 07:19:45;;;;;;;11.82;3.90;;;;;;;;;;5047791;28;20025;-60
2023/08/20 07:22:11;;;;;;;10.52;4.75;;;;;;;;;;5047549;28;20052;-56
2023/08/20 07:24:38;;;;;;;7.95;4.18;;;;;;;;;;5047834;28;20230;-56
2023/08/20 07:27:10;;;;;;;10.73;4.53;;;;;;;;;;5047601;28;20018;-58
2023/08/20 07:29:37;;;;;;;7.53;4.30;;;;;;;;;;5047654;28;20053;-59
2023/08/20 07:32:04;;;;;;;10.00;4.32;;;;;;;;;;5047722;28;20275;-59
2023/08/20 07:34:31;;;;;;;12.60;4.43;;;;;;;;;;5047656;28;20363;-59
2023/08/20 07:36:58;;;;;;;20.23;5.28;;;;;;;;;;5047419;28;20037;-59
2023/08/20 07:39:25;;;;;;;16.02;4.80;;;;;;;;;;5047573;28;20036;-59
2023/08/20 07:41:52;;;;;;;30.30;6.07;;;;;;;;;;5047600;28;20033;-59
2023/08/20 07:44:18;;;;;;;45.50;7.82;;;;;;;;;;5047552;28;20056;-59
2023/08/20 07:46:45;;;;;;;91.97;10.57;;;;;;;;;;5047036;28;20026;-54
2023/08/20 07:49:12;;;;;;;46.97;7.93;;;;;;;;;;5047650;28;20297;-56
2023/08/20 07:51:38;;;;;;;42.58;7.35;;;;;;;;;;5046970;28;20049;-59
2023/08/20 07:54:05;;;;;;;23.33;6.20;;;;;;;;;;5047064;28;20025;-58
2023/08/20 07:56:31;;;;;;;75.47;9.63;;;;;;;;;;5046877;28;20517;-55
2023/08/20 07:58:58;;;;;;;42.15;6.13;;;;;;;;;;5047134;28;20040;-57
2023/08/20 08:01:25;;;;;;;59.58;9.73;;;;;;;;;;5046890;28;20017;-57
2023/08/20 08:03:51;;;;;;;91.75;10.32;;;;;;;;;;5046838;28;20030;-55
2023/08/20 08:06:18;;;;;;;115.60;12.85;;;;;;;;;;5046869;28;20072;-57
2023/08/20 08:08:45;;;;;;;113.47;12.60;;;;;;;;;;5046638;28;20206;-57
2023/08/20 08:11:11;;;;;;;155.15;14.95;;;;;;;;;;5046940;28;20025;-59
2023/08/20 08:13:38;;;;;;;129.95;13.45;;;;;;;;;;5046889;28;20085;-59
2023/08/20 08:16:04;;;;;;;103.45;10.95;;;;;;;;;;5047556;28;20048;-58
2023/08/20 08:18:31;;;;;;;57.22;7.07;;;;;;;;;;5046679;28;20044;-56
2023/08/20 08:20:58;;;;;;;44.83;7.20;;;;;;;;;;5045802;28;20049;-56
2023/08/20 08:23:24;;;;;;;48.05;7.38;;;;;;;;;;5047380;28;20162;-57
2023/08/20 08:25:51;;;;;;;48.38;6.30;;;;;;;;;;5046811;28;20313;-56
2023/08/20 08:28:18;;;;;;;38.55;6.00;;;;;;;;;;5046196;28;20077;-59
2023/08/20 08:30:44;;;;;;;49.10;7.35;;;;;;;;;;5046977;28;20030;-58
2023/08/20 08:33:11;;;;;;;111.22;10.98;;;;;;;;;;5046686;28;20033;-59
2023/08/20 08:35:37;;;;;;;128.23;12.48;;;;;;;;;;5046747;28;20229;-59
2023/08/20 08:38:04;;;;;;;81.35;7.95;;;29.40;99.90;;;;;;5046603;28;20349;-59
2023/08/20 08:40:31;;;;;;;85.68;9.77;;;29.10;99.90;;;;;;5046554;28;20064;-59
2023/08/20 08:42:58;;;;;;;51.45;6.28;;;29.00;99.90;;;;;;5046314;28;20035;-63
2023/08/20 08:45:27;;;;;;;41.67;5.53;;;29.00;99.90;;;;;;5046683;28;20017;-59
2023/08/20 08:47:55;;;;;;;35.92;5.18;;;29.00;99.90;;;;;;5046492;28;20092;-59
2023/08/20 08:50:22;;;;;;;23.67;4.97;;;29.00;99.90;;;;;;5045976;28;20026;-57
2023/08/20 08:52:52;;;;;;;18.63;3.72;;;29.00;99.90;;;;;;5046030;28;20028;-57
2023/08/20 08:55:19;;;;;;;24.35;4.03;;;28.90;99.90;;;;;;5046079;28;20322;-56
2023/08/20 08:57:46;;;;;;;17.77;3.70;;;29.00;99.90;;;;;;5045838;28;20029;-56
2023/08/20 09:00:13;;;;;;;13.77;3.15;;;29.10;99.90;;;;;;5046240;28;20193;-59
2023/08/20 09:02:40;;;;;;;9.68;2.33;;;29.10;99.90;;;;;;5045712;28;20322;-57
2023/08/20 09:05:07;;;;;;;13.27;2.35;;;29.10;99.90;;;;;;5046371;28;20063;-58
2023/08/20 09:07:33;;;;;;;10.43;2.00;;;29.10;99.90;;;;;;5045509;28;20017;-59
2023/08/20 09:10:00;;;;;;;6.65;1.42;;;29.10;99.90;;;;;;5046091;28;20076;-59
2023/08/20 09:12:27;;;;;;;9.80;1.45;;;29.10;99.90;;;;;;5045927;28;20064;-59
2023/08/20 09:14:57;;;;;;;5.45;1.45;;;29.10;99.90;;;;;;5044924;28;20366;-57
2023/08/20 09:17:27;;;;;;;13.73;2.38;;;;;;;;;;5045601;28;20036;-59
2023/08/20 09:19:56;;;;;;;44.78;5.28;;;;;;;;;;5046152;28;20143;-59
2023/08/20 09:22:23;;;;;;;69.68;7.13;;;;;;;;;;5045327;28;20040;-59
2023/08/20 09:24:56;;;;;;;44.08;5.10;;;;;;;;;;5045556;28;20079;-59
2023/08/20 09:27:23;;;;;;;20.65;3.10;;;;;;;;;;5045486;28;20199;-59
2023/08/20 09:29:54;;;;;;;20.00;2.40;;;;;;;;;;5045232;28;20049;-58
2023/08/20 09:32:26;;;;;;;14.60;1.80;;;;;;;;;;5045291;28;20359;-59
2023/08/20 09:34:53;;;;;;;13.30;2.42;;;;;;;;;;5045599;28;20044;-59
2023/08/20 09:37:24;;;;;;;10.88;1.83;;;;;;;;;;5045403;28;20092;-60
2023/08/20 09:39:51;;;;;;;8.13;1.73;;;;;;;;;;5045621;28;20029;-59
2023/08/20 09:42:18;;;;;;;7.35;1.48;;;;;;;;;;5044951;28;20048;-59
2023/08/20 09:44:45;;;;;;;5.70;0.93;;;;;;;;;;5045165;28;20101;-58
2023/08/20 09:47:13;;;;;;;6.03;0.82;;;;;;;;;;5045021;28;20017;-57
2023/08/20 09:49:42;;;;;;;2.83;0.82;;;;;;;;;;5044990;28;20053;-59
2023/08/20 09:52:10;;;;;;;3.90;0.80;;;;;;;;;;5045029;28;20033;-60
2023/08/20 09:54:40;;;;;;;3.10;0.90;;;;;;;;;;5045713;28;20025;-57
2023/08/20 09:57:08;;;;;;;6.72;0.90;;;;;;;;;;5045018;28;20349;-57
2023/08/20 09:59:35;;;;;;;4.60;0.80;;;;;;;;;;5045371;28;20194;-55
2023/08/20 10:02:03;;;;;;;4.78;0.90;;;;;;;;;;5044740;28;20021;-61
2023/08/20 10:04:29;;;;;;;3.58;1.20;;;;;;;;;;5044799;28;20040;-58
2023/08/20 10:06:58;;;;;;;4.50;1.15;;;;;;;;;;5044688;28;20218;-59
2023/08/20 10:09:25;;;;;;;3.90;1.00;;;;;;;;;;5044875;28;20022;-56
2023/08/20 10:11:52;;;;;;;3.50;1.20;;;;;;;;;;5044769;28;20044;-57
2023/08/20 10:14:18;;;;;;;4.07;1.55;;;;;;;;;;5044955;28;20037;-55
2023/08/20 10:16:46;;;;;;;5.70;1.25;;;;;;;;;;5044909;28;20085;-59
2023/08/20 10:19:13;;;;;;;4.13;1.40;;;;;;;;;;5044756;28;20025;-60
2023/08/20 10:21:45;;;;;;;3.83;1.38;;;;;;;;;;5044283;28;20314;-60
2023/08/20 10:24:18;;;;;;;4.57;1.40;;;;;;;;;;5044687;28;20092;-61
2023/08/20 10:26:48;;;;;;;4.43;1.50;;;;;;;;;;5044035;28;20222;-58
2023/08/20 10:29:33;;;;;;;4.50;1.77;;;;;;;;;;5044028;28;20057;-58
2023/08/20 10:32:00;;;;;;;5.10;1.75;;;;;;;;;;5044077;28;20083;-56
2023/08/20 10:34:35;;;;;;;6.25;1.80;;;;;;;;;;5043868;28;20032;-55
2023/08/20 10:37:11;;;;;;;3.22;1.50;;;;;;;;;;5044512;28;20029;-57
2023/08/20 10:39:38;;;;;;;2.83;1.48;;;;;;;;;;5044560;28;20099;-57
2023/08/20 10:42:26;;;;;;;3.28;1.30;;;;;;;;;;5044067;28;20021;-55
2023/08/20 10:45:09;;;;;;;7.60;1.25;;;;;;;;;;5043911;28;20034;-57
2023/08/20 10:47:45;;;;;;;4.35;1.10;;;;;;;;;;5044042;28;20013;-55
2023/08/20 10:50:13;;;;;;;5.50;1.33;;;;;;;;;;5044128;28;20034;-58
2023/08/20 10:52:40;;;;;;;5.38;1.48;;;;;;;;;;5043949;28;20021;-56
2023/08/20 10:55:10;;;;;;;6.13;1.58;;;;;;;;;;5043926;28;20064;-55
2023/08/20 10:57:37;;;;;;;6.65;1.55;;;;;;;;;;5043842;28;20029;-58
2023/08/20 11:00:10;;;;;;;4.80;1.50;;;;;;;;;;5043956;28;20186;-56
2023/08/20 11:02:37;;;;;;;4.88;1.40;;;;;;;;;;5043701;28;20199;-59
2023/08/20 11:05:04;;;;;;;11.68;1.35;;;;;;;;;;5044142;28;20026;-59
2023/08/20 11:07:31;;;;;;;9.07;1.38;;;;;;;;;;5043780;28;20389;-60
2023/08/20 11:09:58;;;;;;;5.95;1.33;;;;;;;;;;5043716;28;20292;-58
2023/08/20 11:12:25;;;;;;;11.82;1.95;;;;;;;;;;5043943;28;20037;-60
2023/08/20 11:14:52;;;;;;;12.85;1.95;;;;;;;;;;5044030;28;20045;-59
2023/08/20 11:17:18;;;;;;;11.82;1.45;;;;;;;;;;5043684;28;20021;-58
2023/08/20 11:19:45;;;;;;;4.25;1.30;;;;;;;;;;5043654;28;20079;-59
2023/08/20 11:22:13;;;;;;;7.25;1.38;;;;;;;;;;5039537;28;20048;-59
2023/08/20 11:24:43;;;;;;;5.47;1.40;;;;;;;;;;5043538;28;20324;-58
2023/08/20 11:27:09;;;;;;;6.00;1.70;;;;;;;;;;5043605;28;20187;-60
2023/08/20 11:29:36;;;;;;;5.72;1.30;;;;;;;;;;5043969;28;20081;-60
2023/08/20 11:32:03;;;;;;;4.00;1.60;;;;;;;;;;5043055;28;20032;-59
2023/08/20 11:34:32;;;;;;;6.53;1.50;;;;;;;;;;5043076;28;20109;-56
2023/08/20 11:36:59;;;;;;;5.68;1.50;;;;;;;;;;5043562;28;20021;-54
2023/08/20 11:39:25;;;;;;;3.72;1.45;;;;;;;;;;5043777;28;20080;-55
2023/08/20 11:41:54;;;;;;;5.25;1.75;;;;;;;;;;5042845;28;20260;-57
2023/08/20 11:44:21;;;;;;;5.65;1.65;;;;;;;;;;5043867;28;20036;-57
2023/08/20 11:46:48;;;;;;;7.13;1.65;;;;;;;;;;5043473;28;20268;-53
2023/08/20 11:49:15;;;;;;;3.08;1.20;;;;;;;;;;5043603;28;20313;-57
2023/08/20 11:51:49;;;;;;;4.97;1.60;;;;;;;;;;5042800;28;20310;-57
2023/08/20 11:54:17;;;;;;;2.65;1.27;;;;;;;;;;5044159;28;20029;-55
2023/08/20 11:56:48;;;;;;;4.18;1.70;;;;;;;;;;5046977;28;20081;-58
2023/08/20 11:59:15;;;;;;;8.82;1.95;;;;;;;;;;5047136;28;20044;-57
2023/08/20 12:01:42;;;;;;;4.05;1.67;;;;;;;;;;5043235;28;20037;-59
2023/08/20 12:04:09;;;;;;;3.35;1.38;;;;;;;;;;5047288;28;20079;-59
2023/08/20 12:06:36;;;;;;;3.03;1.13;;;;;;;;;;5046848;28;20076;-59
2023/08/20 12:09:20;;;;;;;5.40;1.50;;;;;;;;;;5046611;28;20029;-59
2023/08/20 12:11:50;;;;;;;11.77;1.90;;;;;;;;;;5046661;28;20025;-58
2023/08/20 12:14:20;;;;;;;10.00;1.63;;;;;;;;;;5046669;28;20040;-54
2023/08/20 12:16:47;;;;;;;7.82;1.50;;;;;;;;;;5046671;28;20017;-62
2023/08/20 12:19:14;;;;;;;6.10;1.35;;;;;;;;;;5046599;28;20083;-56
2023/08/20 12:21:43;;;;;;;5.25;1.40;;;;;;;;;;5046540;28;20021;-55
2023/08/20 12:24:10;;;;;;;5.13;1.27;;;;;;;;;;5046623;28;20033;-53
2023/08/20 12:26:40;;;;;;;29.70;3.78;;;;;;;;;;5046530;28;20022;-59
2023/08/20 12:29:07;;;;;;;7.70;2.35;;;;;;;;;;5046433;28;20114;-58
2023/08/20 12:31:34;;;;;;;5.38;1.83;;;;;;;;;;5046473;28;20017;-56
2023/08/20 12:34:01;;;;;;;6.43;1.83;;;;;;;;;;5046407;28;20029;-58
2023/08/20 12:36:28;;;;;;;5.25;1.73;;;;;;;;;;5046698;28;20030;-59
2023/08/20 12:38:55;;;;;;;4.18;1.55;;;;;;;;;;5046642;28;20018;-55
2023/08/20 12:41:22;;;;;;;3.95;1.40;;;;;;;;;;5046491;28;20056;-56
2023/08/20 12:43:49;;;;;;;7.18;1.42;;;;;;;;;;5046130;28;20225;-56
2023/08/20 12:46:16;;;;;;;3.38;1.13;;;;;;;;;;5046284;28;20034;-57
2023/08/20 12:48:42;;;;;;;4.07;1.02;;;;;;;;;;5045841;28;20061;-57
2023/08/20 12:51:13;;;;;;;2.45;0.98;;;;;;;;;;5045850;28;20033;-59
2023/08/20 12:53:43;;;;;;;2.42;1.05;;;;;;;;;;5046189;28;20033;-59
2023/08/20 12:56:10;;;;;;;2.92;1.10;;;;;;;;;;5045912;28;20092;-56
2023/08/20 12:58:37;;;;;;;1.63;0.85;;;;;;;;;;5046148;28;20041;-58
2023/08/20 13:01:04;;;;;;;2.83;1.00;;;;;;;;;;5046289;28;20022;-61
2023/08/20 13:03:32;;;;;;;3.58;1.10;;;;;;;;;;5045936;28;20029;-58
2023/08/20 13:05:59;;;;;;;3.35;1.23;;;;;;;;;;5045283;28;20061;-62
2023/08/20 13:08:26;;;;;;;2.10;1.20;;;;;;;;;;5046196;28;20214;-58
2023/08/20 13:11:02;;;;;;;2.45;1.23;;;;;;;;;;5046007;28;20024;-56
2023/08/20 13:13:32;;;;;;;3.03;1.02;;;;;;;;;;5045866;28;20029;-57
2023/08/20 13:15:59;;;;;;;3.47;0.88;;;;;;;;;;5045694;28;20025;-57
2023/08/20 13:18:30;;;;;;;2.65;0.90;;;;;;;;;;5045718;28;20025;-56
2023/08/20 13:20:57;;;;;;;2.33;0.85;;;;;;;;;;5045486;28;20021;-56
2023/08/20 13:23:24;;;;;;;3.97;1.60;;;;;;;;;;5044400;28;20243;-60
2023/08/20 13:25:51;;;;;;;1.52;0.90;;;;;;;;;;5045201;28;20105;-60
2023/08/20 13:28:18;;;;;;;2.65;0.77;;;;;;;;;;5045245;28;20037;-56
2023/08/20 13:30:45;;;;;;;2.33;0.80;;;;;;;;;;5045407;28;20037;-56
2023/08/20 13:33:13;;;;;;;2.25;0.80;;;;;;;;;;5045074;28;20025;-61
2023/08/20 13:35:39;;;;;;;1.38;0.80;;;;;;;;;;5045463;28;20040;-53
2023/08/20 13:38:08;;;;;;;4.28;0.90;;;;;;;;;;5045856;28;20291;-59
2023/08/20 13:40:34;;;;;;;2.20;0.90;;;29.20;99.90;;;;;;5045081;28;20033;-58
2023/08/20 13:43:01;;;;;;;2.08;0.90;;;29.10;99.90;;;;;;5045403;28;20037;-56
2023/08/20 13:45:29;;;;;;;2.10;0.60;;;29.10;99.90;;;;;;5045261;28;20037;-57
2023/08/20 13:47:55;;;;;;;17.02;2.80;;;29.10;99.90;;;;;;5045229;28;20080;-58
2023/08/20 13:50:22;;;;;;;14.88;2.13;;;29.00;99.90;;;;;;5045157;28;20101;-56
2023/08/20 13:52:49;;;;;;;7.75;1.75;;;28.90;99.90;;;;;;5044711;28;20028;-54
2023/08/20 13:55:15;;;;;;;22.25;1.45;;;29.10;99.90;;;;;;5044638;28;20029;-56
2023/08/20 13:57:42;;;;;;;3.28;0.90;;;29.00;99.90;;;;;;5045388;28;20037;-55
2023/08/20 14:00:12;;;;;;;2.42;0.90;;;29.00;99.90;;;;;;5045075;28;20067;-58
2023/08/20 14:02:39;;;;;;;1.77;1.05;;;29.00;99.90;;;;;;5045012;28;20045;-54
2023/08/20 14:05:06;;;;;;;3.70;1.05;;;28.90;99.90;;;;;;5044796;28;20028;-56
2023/08/20 14:07:34;;;;;;;3.90;1.40;;;28.90;99.90;;;;;;5045099;28;20021;-56
2023/08/20 14:10:04;;;;;;;11.85;1.48;;;28.90;99.90;;;;;;5044655;28;20088;-54
2023/08/20 14:12:31;;;;;;;32.80;2.20;;;;;;;;;;5044802;28;20044;-58
2023/08/20 14:15:03;;;;;;;6.28;1.50;;;;;;;;;;5045437;28;20037;-56
2023/08/20 14:17:30;;;;;;;3.55;1.10;;;;;;;;;;5042636;28;20075;-54
2023/08/20 14:19:57;;;;;;;2.38;0.90;;;;;;;;;;5044297;28;20029;-58
2023/08/20 14:22:24;;;;;;;3.30;0.80;;;;;;;;;;5045320;28;20025;-58
2023/08/20 14:24:50;;;;;;;4.43;0.82;;;;;;;;;;5044744;28;20029;-61
2023/08/20 14:27:17;;;;;;;2.53;0.95;;;;;;;;;;5045080;28;20084;-62